sensor_id;sensor_type;location;lat;lon;timestamp;pressure;altitude;pressure_sealevel;temperature
30001;BMP280;16845;48.670;9.000;2023-06-04T00:01:12;95503.09;;;14.48
30001;BMP280;16845;48.670;9.000;2023-06-04T00:03:42;95510.81;;;14.45
30001;BMP280;16845;48.670;9.000;2023-06-04T00:06:10;95508.34;;;14.43
30001;BMP280;16845;48.670;9.000;2023-06-04T00:08:37;95513.53;;;14.40
30001;BMP280;16845;48.670;9.000;2023-06-04T00:11:03;95507.66;;;14.40
30001;BMP280;16845;48.670;9.000;2023-06-04T00:13:30;95512.97;;;14.34
30001;BMP280;16845;48.670;9.000;2023-06-04T00:15:57;95512.28;;;14.30
30001;BMP280;16845;48.670;9.000;2023-06-04T00:18:23;95502.44;;;14.24
30001;BMP280;16845;48.670;9.000;2023-06-04T00:20:50;95504.38;;;14.19
30001;BMP280;16845;48.670;9.000;2023-06-04T00:23:18;95503.91;;;14.10
30001;BMP280;16845;48.670;9.000;2023-06-04T00:25:45;95505.56;;;14.11
30001;BMP280;16845;48.670;9.000;2023-06-04T00:28:11;95503.53;;;14.19
30001;BMP280;16845;48.670;9.000;2023-06-04T00:30:38;95496.34;;;14.10
30001;BMP280;16845;48.670;9.000;2023-06-04T00:33:04;95507.19;;;14.12
30001;BMP280;16845;48.670;9.000;2023-06-04T00:35:31;95497.97;;;14.11
30001;BMP280;16845;48.670;9.000;2023-06-04T00:37:58;95513.50;;;14.02
30001;BMP280;16845;48.670;9.000;2023-06-04T00:40:26;95512.63;;;14.03
30001;BMP280;16845;48.670;9.000;2023-06-04T00:42:52;95511.03;;;14.01
30001;BMP280;16845;48.670;9.000;2023-06-04T00:45:19;95512.50;;;13.86
30001;BMP280;16845;48.670;9.000;2023-06-04T00:47:45;95503.69;;;13.76
30001;BMP280;16845;48.670;9.000;2023-06-04T00:50:13;95512.31;;;13.71
30001;BMP280;16845;48.670;9.000;2023-06-04T00:52:40;95506.72;;;13.64
30001;BMP280;16845;48.670;9.000;2023-06-04T00:55:08;95509.81;;;13.71
30001;BMP280;16845;48.670;9.000;2023-06-04T00:57:37;95514.91;;;13.69
30001;BMP280;16845;48.670;9.000;2023-06-04T01:00:04;95515.91;;;13.65
30001;BMP280;16845;48.670;9.000;2023-06-04T01:02:33;95519.31;;;13.64
30001;BMP280;16845;48.670;9.000;2023-06-04T01:05:03;95517.69;;;13.63
30001;BMP280;16845;48.670;9.000;2023-06-04T01:07:33;95526.22;;;13.59
30001;BMP280;16845;48.670;9.000;2023-06-04T01:10:01;95524.72;;;13.55
30001;BMP280;16845;48.670;9.000;2023-06-04T01:12:28;95526.53;;;13.52
30001;BMP280;16845;48.670;9.000;2023-06-04T01:14:56;95525.09;;;13.46
30001;BMP280;16845;48.670;9.000;2023-06-04T01:17:26;95522.13;;;13.57
30001;BMP280;16845;48.670;9.000;2023-06-04T01:20:05;95525.03;;;13.48
30001;BMP280;16845;48.670;9.000;2023-06-04T01:22:37;95525.34;;;13.40
30001;BMP280;16845;48.670;9.000;2023-06-04T01:25:09;95527.91;;;13.39
30001;BMP280;16845;48.670;9.000;2023-06-04T01:27:38;95530.63;;;13.34
30001;BMP280;16845;48.670;9.000;2023-06-04T01:30:09;95529.78;;;13.34
30001;BMP280;16845;48.670;9.000;2023-06-04T01:32:36;95526.63;;;13.29
30001;BMP280;16845;48.670;9.000;2023-06-04T01:35:03;95527.22;;;13.35
30001;BMP280;16845;48.670;9.000;2023-06-04T01:37:33;95526.75;;;13.26
30001;BMP280;16845;48.670;9.000;2023-06-04T01:40:00;95521.94;;;13.20
30001;BMP280;16845;48.670;9.000;2023-06-04T01:42:26;95516.22;;;13.16
30001;BMP280;16845;48.670;9.000;2023-06-04T01:44:53;95525.88;;;13.05
30001;BMP280;16845;48.670;9.000;2023-06-04T01:47:20;95518.56;;;12.99
30001;BMP280;16845;48.670;9.000;2023-06-04T01:49:47;95527.94;;;12.96
30001;BMP280;16845;48.670;9.000;2023-06-04T01:52:13;95525.56;;;12.91
30001;BMP280;16845;48.670;9.000;2023-06-04T01:54:40;95529.72;;;12.92
30001;BMP280;16845;48.670;9.000;2023-06-04T01:57:06;95529.72;;;12.92
30001;BMP280;16845;48.670;9.000;2023-06-04T01:59:34;95527.19;;;12.92
30001;BMP280;16845;48.670;9.000;2023-06-04T02:02:01;95518.00;;;12.91
30001;BMP280;16845;48.670;9.000;2023-06-04T02:04:29;95520.25;;;12.99
30001;BMP280;16845;48.670;9.000;2023-06-04T02:06:55;95526.25;;;12.96
30001;BMP280;16845;48.670;9.000;2023-06-04T02:09:22;95533.66;;;12.78
30001;BMP280;16845;48.670;9.000;2023-06-04T02:11:48;95519.13;;;12.84
30001;BMP280;16845;48.670;9.000;2023-06-04T02:14:15;95523.56;;;12.78
30001;BMP280;16845;48.670;9.000;2023-06-04T02:16:42;95520.19;;;12.79
30001;BMP280;16845;48.670;9.000;2023-06-04T02:19:08;95527.78;;;12.77
30001;BMP280;16845;48.670;9.000;2023-06-04T02:21:36;95526.94;;;12.77
30001;BMP280;16845;48.670;9.000;2023-06-04T02:24:03;95525.31;;;12.76
30001;BMP280;16845;48.670;9.000;2023-06-04T02:26:29;95524.66;;;12.71
30001;BMP280;16845;48.670;9.000;2023-06-04T02:28:56;95526.47;;;12.67
30001;BMP280;16845;48.670;9.000;2023-06-04T02:31:22;95529.28;;;12.60
30001;BMP280;16845;48.670;9.000;2023-06-04T02:33:49;95529.41;;;12.57
30001;BMP280;16845;48.670;9.000;2023-06-04T02:36:15;95533.59;;;12.56
30001;BMP280;16845;48.670;9.000;2023-06-04T02:38:43;95530.31;;;12.54
30001;BMP280;16845;48.670;9.000;2023-06-04T02:41:09;95526.28;;;12.50
30001;BMP280;16845;48.670;9.000;2023-06-04T02:43:36;95528.72;;;12.52
30001;BMP280;16845;48.670;9.000;2023-06-04T02:46:02;95529.72;;;12.48
30001;BMP280;16845;48.670;9.000;2023-06-04T02:48:29;95536.78;;;12.38
30001;BMP280;16845;48.670;9.000;2023-06-04T02:50:56;95539.38;;;12.35
30001;BMP280;16845;48.670;9.000;2023-06-04T02:53:22;95533.16;;;12.22
30001;BMP280;16845;48.670;9.000;2023-06-04T02:55:50;95534.91;;;12.20
30001;BMP280;16845;48.670;9.000;2023-06-04T02:58:16;95539.06;;;12.21
30001;BMP280;16845;48.670;9.000;2023-06-04T03:00:43;95537.31;;;12.23
30001;BMP280;16845;48.670;9.000;2023-06-04T03:03:09;95541.63;;;12.20
30001;BMP280;16845;48.670;9.000;2023-06-04T03:05:36;95539.22;;;12.17
30001;BMP280;16845;48.670;9.000;2023-06-04T03:08:03;95531.28;;;12.04
30001;BMP280;16845;48.670;9.000;2023-06-04T03:10:29;95533.16;;;12.22
30001;BMP280;16845;48.670;9.000;2023-06-04T03:12:57;95541.69;;;12.18
30001;BMP280;16845;48.670;9.000;2023-06-04T03:15:24;95547.88;;;12.10
30001;BMP280;16845;48.670;9.000;2023-06-04T03:17:50;95548.31;;;12.21
30001;BMP280;16845;48.670;9.000;2023-06-04T03:20:17;95550.03;;;12.19
30001;BMP280;16845;48.670;9.000;2023-06-04T03:22:43;95544.13;;;12.20
30001;BMP280;16845;48.670;9.000;2023-06-04T03:25:10;95545.16;;;12.14
30001;BMP280;16845;48.670;9.000;2023-06-04T03:27:37;95554.69;;;12.06
30001;BMP280;16845;48.670;9.000;2023-06-04T03:30:06;95558.72;;;12.10
30001;BMP280;16845;48.670;9.000;2023-06-04T03:32:33;95558.84;;;12.07
30001;BMP280;16845;48.670;9.000;2023-06-04T03:35:00;95557.75;;;12.14
30001;BMP280;16845;48.670;9.000;2023-06-04T03:37:27;95554.19;;;12.20
30001;BMP280;16845;48.670;9.000;2023-06-04T03:39:53;95552.47;;;12.22
30001;BMP280;16845;48.670;9.000;2023-06-04T03:42:20;95554.38;;;12.15
30001;BMP280;16845;48.670;9.000;2023-06-04T03:44:46;95561.19;;;12.12
30001;BMP280;16845;48.670;9.000;2023-06-04T03:47:14;95564.53;;;12.12
30001;BMP280;16845;48.670;9.000;2023-06-04T03:49:41;95562.50;;;11.99
30001;BMP280;16845;48.670;9.000;2023-06-04T03:52:07;95562.53;;;11.97
30001;BMP280;16845;48.670;9.000;2023-06-04T03:54:34;95566.38;;;12.07
30001;BMP280;16845;48.670;9.000;2023-06-04T03:57:00;95565.09;;;11.96
30001;BMP280;16845;48.670;9.000;2023-06-04T03:59:27;95567.44;;;12.00
30001;BMP280;16845;48.670;9.000;2023-06-04T04:01:53;95563.59;;;11.90
30001;BMP280;16845;48.670;9.000;2023-06-04T04:04:21;95570.84;;;11.99
30001;BMP280;16845;48.670;9.000;2023-06-04T04:06:48;95570.44;;;12.11
30001;BMP280;16845;48.670;9.000;2023-06-04T04:09:14;95571.31;;;12.10
30001;BMP280;16845;48.670;9.000;2023-06-04T04:11:41;95574.84;;;12.29
30001;BMP280;16845;48.670;9.000;2023-06-04T04:14:07;95571.13;;;12.39
30001;BMP280;16845;48.670;9.000;2023-06-04T04:16:34;95578.44;;;12.45
30001;BMP280;16845;48.670;9.000;2023-06-04T04:19:01;95576.31;;;12.58
30001;BMP280;16845;48.670;9.000;2023-06-04T04:21:29;95573.84;;;12.56
30001;BMP280;16845;48.670;9.000;2023-06-04T04:23:55;95575.56;;;12.56
30001;BMP280;16845;48.670;9.000;2023-06-04T04:26:22;95573.97;;;12.53
30001;BMP280;16845;48.670;9.000;2023-06-04T04:28:48;95580.22;;;12.66
30001;BMP280;16845;48.670;9.000;2023-06-04T04:31:15;95580.75;;;12.74
30001;BMP280;16845;48.670;9.000;2023-06-04T04:33:41;95576.31;;;12.81
30001;BMP280;16845;48.670;9.000;2023-06-04T04:36:08;95581.78;;;12.92
30001;BMP280;16845;48.670;9.000;2023-06-04T04:38:36;95586.44;;;13.02
30001;BMP280;16845;48.670;9.000;2023-06-04T04:41:02;95574.50;;;13.07
30001;BMP280;16845;48.670;9.000;2023-06-04T04:43:30;95587.88;;;13.09
30001;BMP280;16845;48.670;9.000;2023-06-04T04:45:57;95586.72;;;13.16
30001;BMP280;16845;48.670;9.000;2023-06-04T04:48:24;95592.84;;;13.32
30001;BMP280;16845;48.670;9.000;2023-06-04T04:50:51;95583.97;;;13.44
30001;BMP280;16845;48.670;9.000;2023-06-04T04:53:17;95581.53;;;13.42
30001;BMP280;16845;48.670;9.000;2023-06-04T04:55:45;95588.09;;;13.46
30001;BMP280;16845;48.670;9.000;2023-06-04T04:58:12;95595.22;;;13.57
30001;BMP280;16845;48.670;9.000;2023-06-04T05:00:38;95591.78;;;13.59
30001;BMP280;16845;48.670;9.000;2023-06-04T05:03:05;95589.66;;;13.70
30001;BMP280;16845;48.670;9.000;2023-06-04T05:05:31;95598.16;;;13.88
30001;BMP280;16845;48.670;9.000;2023-06-04T05:07:58;95600.16;;;14.01
30001;BMP280;16845;48.670;9.000;2023-06-04T05:10:25;95593.59;;;14.17
30001;BMP280;16845;48.670;9.000;2023-06-04T05:12:53;95594.63;;;14.33
30001;BMP280;16845;48.670;9.000;2023-06-04T05:15:19;95590.72;;;14.26
30001;BMP280;16845;48.670;9.000;2023-06-04T05:17:46;95593.91;;;14.49
30001;BMP280;16845;48.670;9.000;2023-06-04T05:20:13;95600.94;;;14.43
30001;BMP280;16845;48.670;9.000;2023-06-04T05:22:40;95601.81;;;14.42
30001;BMP280;16845;48.670;9.000;2023-06-04T05:25:07;95604.06;;;14.28
30001;BMP280;16845;48.670;9.000;2023-06-04T05:27:34;95610.50;;;14.35
30001;BMP280;16845;48.670;9.000;2023-06-04T05:30:02;95610.38;;;14.38
30001;BMP280;16845;48.670;9.000;2023-06-04T05:32:29;95606.16;;;14.38
30001;BMP280;16845;48.670;9.000;2023-06-04T05:34:56;95612.16;;;14.36
30001;BMP280;16845;48.670;9.000;2023-06-04T05:37:23;95615.03;;;14.47
30001;BMP280;16845;48.670;9.000;2023-06-04T05:39:50;95610.50;;;14.55
30001;BMP280;16845;48.670;9.000;2023-06-04T05:42:16;95606.72;;;14.45
30001;BMP280;16845;48.670;9.000;2023-06-04T05:44:43;95608.34;;;14.66
30001;BMP280;16845;48.670;9.000;2023-06-04T05:47:11;95604.75;;;14.90
30001;BMP280;16845;48.670;9.000;2023-06-04T05:49:37;95603.22;;;15.23
30001;BMP280;16845;48.670;9.000;2023-06-04T05:52:05;95602.00;;;15.50
30001;BMP280;16845;48.670;9.000;2023-06-04T05:54:31;95598.78;;;15.82
30001;BMP280;16845;48.670;9.000;2023-06-04T05:56:58;95607.25;;;15.98
30001;BMP280;16845;48.670;9.000;2023-06-04T05:59:24;95610.38;;;16.20
30001;BMP280;16845;48.670;9.000;2023-06-04T06:01:51;95604.28;;;16.41
30001;BMP280;16845;48.670;9.000;2023-06-04T06:04:18;95612.16;;;16.52
30001;BMP280;16845;48.670;9.000;2023-06-04T06:06:45;95613.47;;;16.75
30001;BMP280;16845;48.670;9.000;2023-06-04T06:09:12;95608.09;;;16.97
30001;BMP280;16845;48.670;9.000;2023-06-04T06:11:38;95610.66;;;17.12
30001;BMP280;16845;48.670;9.000;2023-06-04T06:14:05;95608.53;;;17.20
30001;BMP280;16845;48.670;9.000;2023-06-04T06:16:31;95610.75;;;17.26
30001;BMP280;16845;48.670;9.000;2023-06-04T06:18:59;95607.06;;;17.47
30001;BMP280;16845;48.670;9.000;2023-06-04T06:21:27;95610.63;;;17.60
30001;BMP280;16845;48.670;9.000;2023-06-04T06:23:54;95608.69;;;17.79
30001;BMP280;16845;48.670;9.000;2023-06-04T06:26:21;95605.41;;;17.31
30001;BMP280;16845;48.670;9.000;2023-06-04T06:28:47;95611.66;;;17.41
30001;BMP280;16845;48.670;9.000;2023-06-04T06:31:14;95607.25;;;17.44
30001;BMP280;16845;48.670;9.000;2023-06-04T06:33:41;95612.78;;;18.11
30001;BMP280;16845;48.670;9.000;2023-06-04T06:36:07;95618.19;;;18.05
30001;BMP280;16845;48.670;9.000;2023-06-04T06:38:35;95616.63;;;18.18
30001;BMP280;16845;48.670;9.000;2023-06-04T06:41:02;95618.63;;;18.27
30001;BMP280;16845;48.670;9.000;2023-06-04T06:43:28;95614.72;;;18.22
30001;BMP280;16845;48.670;9.000;2023-06-04T06:45:55;95621.09;;;18.72
30001;BMP280;16845;48.670;9.000;2023-06-04T06:48:21;95613.66;;;18.97
30001;BMP280;16845;48.670;9.000;2023-06-04T06:50:48;95609.81;;;19.46
30001;BMP280;16845;48.670;9.000;2023-06-04T06:53:14;95616.00;;;19.14
30001;BMP280;16845;48.670;9.000;2023-06-04T06:55:42;95621.56;;;19.07
30001;BMP280;16845;48.670;9.000;2023-06-04T06:58:09;95610.53;;;19.48
30001;BMP280;16845;48.670;9.000;2023-06-04T07:00:35;95621.38;;;19.23
30001;BMP280;16845;48.670;9.000;2023-06-04T07:03:02;95616.72;;;19.97
30001;BMP280;16845;48.670;9.000;2023-06-04T07:05:28;95611.28;;;20.03
30001;BMP280;16845;48.670;9.000;2023-06-04T07:07:55;95604.91;;;19.96
30001;BMP280;16845;48.670;9.000;2023-06-04T07:10:21;95607.28;;;20.38
30001;BMP280;16845;48.670;9.000;2023-06-04T07:12:49;95606.44;;;20.37
30001;BMP280;16845;48.670;9.000;2023-06-04T07:15:16;95610.06;;;20.85
30001;BMP280;16845;48.670;9.000;2023-06-04T07:17:42;95601.78;;;21.67
30001;BMP280;16845;48.670;9.000;2023-06-04T07:20:09;95604.00;;;21.36
30001;BMP280;16845;48.670;9.000;2023-06-04T07:22:35;95605.03;;;21.69
30001;BMP280;16845;48.670;9.000;2023-06-04T07:25:02;95601.97;;;22.11
30001;BMP280;16845;48.670;9.000;2023-06-04T07:27:29;95606.72;;;22.04
30001;BMP280;16845;48.670;9.000;2023-06-04T07:29:57;95600.44;;;23.10
30001;BMP280;16845;48.670;9.000;2023-06-04T07:32:23;95604.03;;;22.29
30001;BMP280;16845;48.670;9.000;2023-06-04T07:34:49;95600.19;;;22.69
30001;BMP280;16845;48.670;9.000;2023-06-04T07:37:16;95598.97;;;22.40
30001;BMP280;16845;48.670;9.000;2023-06-04T07:39:43;95594.06;;;22.94
30001;BMP280;16845;48.670;9.000;2023-06-04T07:42:09;95601.69;;;22.61
30001;BMP280;16845;48.670;9.000;2023-06-04T07:44:37;95608.13;;;22.99
30001;BMP280;16845;48.670;9.000;2023-06-04T07:47:05;95599.91;;;23.82
30001;BMP280;16845;48.670;9.000;2023-06-04T07:49:32;95596.94;;;24.09
30001;BMP280;16845;48.670;9.000;2023-06-04T07:51:58;95598.66;;;24.19
30001;BMP280;16845;48.670;9.000;2023-06-04T07:54:25;95591.97;;;24.48
30001;BMP280;16845;48.670;9.000;2023-06-04T07:56:51;95593.09;;;24.96
30001;BMP280;16845;48.670;9.000;2023-06-04T07:59:18;95592.34;;;24.43
30001;BMP280;16845;48.670;9.000;2023-06-04T08:01:44;95588.84;;;24.24
30001;BMP280;16845;48.670;9.000;2023-06-04T08:04:12;95590.03;;;25.02
30001;BMP280;16845;48.670;9.000;2023-06-04T08:06:39;95591.13;;;25.09
30001;BMP280;16845;48.670;9.000;2023-06-04T08:09:05;95585.41;;;25.26
30001;BMP280;16845;48.670;9.000;2023-06-04T08:11:32;95583.41;;;25.88
30001;BMP280;16845;48.670;9.000;2023-06-04T08:13:58;95581.03;;;26.15
30001;BMP280;16845;48.670;9.000;2023-06-04T08:16:25;95575.44;;;26.10
30001;BMP280;16845;48.670;9.000;2023-06-04T08:18:51;95581.47;;;25.61
30001;BMP280;16845;48.670;9.000;2023-06-04T08:21:26;95575.88;;;25.86
30001;BMP280;16845;48.670;9.000;2023-06-04T08:23:53;95580.13;;;25.67
30001;BMP280;16845;48.670;9.000;2023-06-04T08:26:19;95584.91;;;26.00
30001;BMP280;16845;48.670;9.000;2023-06-04T08:28:47;95587.09;;;26.04
30001;BMP280;16845;48.670;9.000;2023-06-04T08:31:14;95587.88;;;25.86
30001;BMP280;16845;48.670;9.000;2023-06-04T08:33:41;95588.72;;;25.47
30001;BMP280;16845;48.670;9.000;2023-06-04T08:36:07;95587.50;;;26.38
30001;BMP280;16845;48.670;9.000;2023-06-04T08:38:35;95577.91;;;26.02
30001;BMP280;16845;48.670;9.000;2023-06-04T08:41:07;95586.00;;;26.16
30001;BMP280;16845;48.670;9.000;2023-06-04T08:43:36;95585.75;;;26.29
30001;BMP280;16845;48.670;9.000;2023-06-04T08:46:05;95585.19;;;26.44
30001;BMP280;16845;48.670;9.000;2023-06-04T08:48:32;95580.22;;;26.52
30001;BMP280;16845;48.670;9.000;2023-06-04T08:50:59;95574.72;;;27.29
30001;BMP280;16845;48.670;9.000;2023-06-04T08:53:29;95588.56;;;26.83
30001;BMP280;16845;48.670;9.000;2023-06-04T08:55:58;95586.00;;;26.45
30001;BMP280;16845;48.670;9.000;2023-06-04T08:58:26;95583.91;;;26.95
30001;BMP280;16845;48.670;9.000;2023-06-04T09:00:54;95583.53;;;27.27
30001;BMP280;16845;48.670;9.000;2023-06-04T09:03:21;95585.06;;;27.47
30001;BMP280;16845;48.670;9.000;2023-06-04T09:05:48;95594.47;;;28.10
30001;BMP280;16845;48.670;9.000;2023-06-04T09:08:17;95600.16;;;27.69
30001;BMP280;16845;48.670;9.000;2023-06-04T09:10:44;95600.78;;;27.26
30001;BMP280;16845;48.670;9.000;2023-06-04T09:13:13;95595.72;;;27.61
30001;BMP280;16845;48.670;9.000;2023-06-04T09:15:40;95601.38;;;27.74
30001;BMP280;16845;48.670;9.000;2023-06-04T09:18:07;95606.56;;;28.27
30001;BMP280;16845;48.670;9.000;2023-06-04T09:20:34;95602.34;;;28.78
30001;BMP280;16845;48.670;9.000;2023-06-04T09:23:00;95608.66;;;29.01
30001;BMP280;16845;48.670;9.000;2023-06-04T09:25:27;95606.84;;;28.94
30001;BMP280;16845;48.670;9.000;2023-06-04T09:27:54;95612.28;;;28.48
30001;BMP280;16845;48.670;9.000;2023-06-04T09:30:22;95616.59;;;28.65
30001;BMP280;16845;48.670;9.000;2023-06-04T09:32:49;95613.81;;;29.01
30001;BMP280;16845;48.670;9.000;2023-06-04T09:35:16;95615.06;;;29.23
30001;BMP280;16845;48.670;9.000;2023-06-04T09:37:52;95611.72;;;28.09
30001;BMP280;16845;48.670;9.000;2023-06-04T09:40:19;95619.72;;;29.86
30001;BMP280;16845;48.670;9.000;2023-06-04T09:42:46;95621.19;;;28.53
30001;BMP280;16845;48.670;9.000;2023-06-04T09:45:12;95617.25;;;28.67
30001;BMP280;16845;48.670;9.000;2023-06-04T09:47:42;95623.72;;;28.01
30001;BMP280;16845;48.670;9.000;2023-06-04T09:50:10;95616.69;;;30.64
30001;BMP280;16845;48.670;9.000;2023-06-04T09:52:37;95604.19;;;30.43
30001;BMP280;16845;48.670;9.000;2023-06-04T09:55:04;95607.31;;;30.71
30001;BMP280;16845;48.670;9.000;2023-06-04T09:57:44;95607.09;;;30.32
30001;BMP280;16845;48.670;9.000;2023-06-04T10:00:13;95610.00;;;29.47
30001;BMP280;16845;48.670;9.000;2023-06-04T10:02:43;95608.97;;;29.57
30001;BMP280;16845;48.670;9.000;2023-06-04T10:05:10;95617.88;;;29.37
30001;BMP280;16845;48.670;9.000;2023-06-04T10:07:38;95603.53;;;29.68
30001;BMP280;16845;48.670;9.000;2023-06-04T10:10:08;95617.00;;;28.52
30001;BMP280;16845;48.670;9.000;2023-06-04T10:12:37;95607.75;;;28.67
30001;BMP280;16845;48.670;9.000;2023-06-04T10:15:06;95607.97;;;29.50
30001;BMP280;16845;48.670;9.000;2023-06-04T10:17:35;95618.09;;;29.18
30001;BMP280;16845;48.670;9.000;2023-06-04T10:20:04;95604.09;;;29.95
30001;BMP280;16845;48.670;9.000;2023-06-04T10:22:31;95605.66;;;30.38
30001;BMP280;16845;48.670;9.000;2023-06-04T10:24:58;95593.22;;;31.52
30001;BMP280;16845;48.670;9.000;2023-06-04T10:27:24;95601.78;;;30.90
30001;BMP280;16845;48.670;9.000;2023-06-04T10:29:51;95593.50;;;30.46
30001;BMP280;16845;48.670;9.000;2023-06-04T10:32:19;95591.31;;;33.91
30001;BMP280;16845;48.670;9.000;2023-06-04T10:34:46;95594.75;;;33.77
30001;BMP280;16845;48.670;9.000;2023-06-04T10:37:20;95589.66;;;30.66
30001;BMP280;16845;48.670;9.000;2023-06-04T10:39:50;95584.13;;;31.56
30001;BMP280;16845;48.670;9.000;2023-06-04T10:42:17;95587.91;;;33.18
30001;BMP280;16845;48.670;9.000;2023-06-04T10:44:46;95582.59;;;32.97
30001;BMP280;16845;48.670;9.000;2023-06-04T10:47:18;95589.59;;;32.52
30001;BMP280;16845;48.670;9.000;2023-06-04T10:49:45;95593.50;;;33.44
30001;BMP280;16845;48.670;9.000;2023-06-04T10:52:11;95584.25;;;36.13
30001;BMP280;16845;48.670;9.000;2023-06-04T10:54:41;95585.16;;;34.13
30001;BMP280;16845;48.670;9.000;2023-06-04T10:57:11;95587.59;;;33.50
30001;BMP280;16845;48.670;9.000;2023-06-04T10:59:38;95587.59;;;32.84
30001;BMP280;16845;48.670;9.000;2023-06-04T11:02:05;95591.19;;;32.38
30001;BMP280;16845;48.670;9.000;2023-06-04T11:04:32;95586.88;;;32.90
30001;BMP280;16845;48.670;9.000;2023-06-04T11:07:00;95591.41;;;35.23
30001;BMP280;16845;48.670;9.000;2023-06-04T11:09:27;95580.41;;;33.38
30001;BMP280;16845;48.670;9.000;2023-06-04T11:11:59;95590.69;;;33.89
30001;BMP280;16845;48.670;9.000;2023-06-04T11:14:28;95594.66;;;34.77
30001;BMP280;16845;48.670;9.000;2023-06-04T11:16:55;95587.16;;;35.50
30001;BMP280;16845;48.670;9.000;2023-06-04T11:19:21;95591.19;;;32.83
30001;BMP280;16845;48.670;9.000;2023-06-04T11:21:48;95597.31;;;32.23
30001;BMP280;16845;48.670;9.000;2023-06-04T11:24:16;95592.25;;;34.61
30001;BMP280;16845;48.670;9.000;2023-06-04T11:26:42;95590.03;;;35.00
30001;BMP280;16845;48.670;9.000;2023-06-04T11:29:27;95581.63;;;34.77
30001;BMP280;16845;48.670;9.000;2023-06-04T11:31:54;95579.94;;;35.18
30001;BMP280;16845;48.670;9.000;2023-06-04T11:34:23;95575.63;;;34.62
30001;BMP280;16845;48.670;9.000;2023-06-04T11:36:50;95573.34;;;37.15
30001;BMP280;16845;48.670;9.000;2023-06-04T11:39:17;95586.47;;;35.35
30001;BMP280;16845;48.670;9.000;2023-06-04T11:41:43;95582.94;;;37.60
30001;BMP280;16845;48.670;9.000;2023-06-04T11:44:11;95583.13;;;36.48
30001;BMP280;16845;48.670;9.000;2023-06-04T11:46:41;95571.38;;;33.98
30001;BMP280;16845;48.670;9.000;2023-06-04T11:49:11;95596.53;;;33.33
30001;BMP280;16845;48.670;9.000;2023-06-04T11:51:38;95580.56;;;33.07
30001;BMP280;16845;48.670;9.000;2023-06-04T11:54:04;95580.84;;;34.83
30001;BMP280;16845;48.670;9.000;2023-06-04T11:56:31;95585.31;;;33.91
30001;BMP280;16845;48.670;9.000;2023-06-04T11:58:58;95572.41;;;38.23
30001;BMP280;16845;48.670;9.000;2023-06-04T12:01:24;95573.75;;;38.32
30001;BMP280;16845;48.670;9.000;2023-06-04T12:03:52;95578.84;;;35.12
30001;BMP280;16845;48.670;9.000;2023-06-04T12:06:19;95576.72;;;34.11
30001;BMP280;16845;48.670;9.000;2023-06-04T12:08:50;95577.16;;;34.71
30001;BMP280;16845;48.670;9.000;2023-06-04T12:11:28;95561.19;;;33.82
30001;BMP280;16845;48.670;9.000;2023-06-04T12:13:55;95561.53;;;32.92
30001;BMP280;16845;48.670;9.000;2023-06-04T12:16:22;95559.38;;;33.68
30001;BMP280;16845;48.670;9.000;2023-06-04T12:18:48;95556.72;;;33.04
30001;BMP280;16845;48.670;9.000;2023-06-04T12:21:21;95564.28;;;32.76
30001;BMP280;16845;48.670;9.000;2023-06-04T12:23:48;95562.91;;;33.32
30001;BMP280;16845;48.670;9.000;2023-06-04T12:26:21;95547.25;;;31.46
30001;BMP280;16845;48.670;9.000;2023-06-04T12:28:58;95553.69;;;29.17
30001;BMP280;16845;48.670;9.000;2023-06-04T12:31:24;95566.59;;;27.78
30001;BMP280;16845;48.670;9.000;2023-06-04T12:33:51;95566.66;;;27.05
30001;BMP280;16845;48.670;9.000;2023-06-04T12:36:18;95572.81;;;26.86
30001;BMP280;16845;48.670;9.000;2023-06-04T12:38:46;95577.50;;;29.36
30001;BMP280;16845;48.670;9.000;2023-06-04T12:41:14;95558.47;;;32.74
30001;BMP280;16845;48.670;9.000;2023-06-04T12:43:40;95552.41;;;34.04
30001;BMP280;16845;48.670;9.000;2023-06-04T12:46:07;95546.09;;;33.92
30001;BMP280;16845;48.670;9.000;2023-06-04T12:48:34;95559.16;;;34.55
30001;BMP280;16845;48.670;9.000;2023-06-04T12:51:00;95562.84;;;33.25
30001;BMP280;16845;48.670;9.000;2023-06-04T12:53:27;95549.03;;;32.37
30001;BMP280;16845;48.670;9.000;2023-06-04T12:55:55;95554.03;;;32.97
30001;BMP280;16845;48.670;9.000;2023-06-04T12:58:21;95539.94;;;36.84
30001;BMP280;16845;48.670;9.000;2023-06-04T13:00:48;95556.31;;;32.92
30001;BMP280;16845;48.670;9.000;2023-06-04T13:03:14;95547.16;;;34.33
30001;BMP280;16845;48.670;9.000;2023-06-04T13:05:41;95532.72;;;35.81
30001;BMP280;16845;48.670;9.000;2023-06-04T13:08:07;95528.50;;;35.33
30001;BMP280;16845;48.670;9.000;2023-06-04T13:10:34;95536.97;;;31.22
30001;BMP280;16845;48.670;9.000;2023-06-04T13:13:02;95564.69;;;28.15
30001;BMP280;16845;48.670;9.000;2023-06-04T13:15:28;95568.31;;;30.64
30001;BMP280;16845;48.670;9.000;2023-06-04T13:17:55;95557.97;;;32.93
30001;BMP280;16845;48.670;9.000;2023-06-04T13:20:21;95553.31;;;33.61
30001;BMP280;16845;48.670;9.000;2023-06-04T13:22:48;95537.34;;;35.38
30001;BMP280;16845;48.670;9.000;2023-06-04T13:25:15;95551.06;;;33.00
30001;BMP280;16845;48.670;9.000;2023-06-04T13:27:41;95548.75;;;32.01
30001;BMP280;16845;48.670;9.000;2023-06-04T13:30:10;95551.47;;;30.84
30001;BMP280;16845;48.670;9.000;2023-06-04T13:32:37;95567.13;;;33.18
30001;BMP280;16845;48.670;9.000;2023-06-04T13:35:05;95556.72;;;33.76
30001;BMP280;16845;48.670;9.000;2023-06-04T13:37:32;95563.91;;;30.57
30001;BMP280;16845;48.670;9.000;2023-06-04T13:39:58;95556.28;;;33.73
30001;BMP280;16845;48.670;9.000;2023-06-04T13:42:25;95555.53;;;32.55
30001;BMP280;16845;48.670;9.000;2023-06-04T13:44:51;95558.19;;;32.84
30001;BMP280;16845;48.670;9.000;2023-06-04T13:47:19;95557.78;;;34.59
30001;BMP280;16845;48.670;9.000;2023-06-04T13:49:45;95561.25;;;36.62
30001;BMP280;16845;48.670;9.000;2023-06-04T13:52:12;95554.78;;;34.62
30001;BMP280;16845;48.670;9.000;2023-06-04T13:54:39;95529.63;;;37.48
30001;BMP280;16845;48.670;9.000;2023-06-04T13:57:05;95548.97;;;35.08
30001;BMP280;16845;48.670;9.000;2023-06-04T13:59:32;95540.28;;;34.11
30001;BMP280;16845;48.670;9.000;2023-06-04T14:01:59;95530.72;;;34.81
30001;BMP280;16845;48.670;9.000;2023-06-04T14:04:27;95526.28;;;31.09
30001;BMP280;16845;48.670;9.000;2023-06-04T14:06:53;95543.69;;;30.52
30001;BMP280;16845;48.670;9.000;2023-06-04T14:09:20;95534.94;;;30.45